sensor_id;sensor_type;location;lat;lon;timestamp;P1;durP1;ratioP1;P2;durP2;ratioP2
47896;SDS011;39629;51.400;5.494;2023-08-06T00:02:27;2.47;;;1.10;;
47896;SDS011;39629;51.400;5.494;2023-08-06T00:07:30;2.80;;;1.25;;
47896;SDS011;39629;51.400;5.494;2023-08-06T00:12:31;2.80;;;1.27;;
47896;SDS011;39629;51.400;5.494;2023-08-06T00:17:33;3.00;;;1.10;;
47896;SDS011;39629;51.400;5.494;2023-08-06T00:22:36;5.05;;;1.30;;
47896;SDS011;39629;51.400;5.494;2023-08-06T00:27:39;3.22;;;1.20;;
47896;SDS011;39629;51.400;5.494;2023-08-06T00:32:41;2.28;;;1.30;;
47896;SDS011;39629;51.400;5.494;2023-08-06T00:37:44;2.20;;;0.98;;
47896;SDS011;39629;51.400;5.494;2023-08-06T00:42:46;2.63;;;1.30;;
47896;SDS011;39629;51.400;5.494;2023-08-06T00:47:48;2.83;;;0.98;;
47896;SDS011;39629;51.400;5.494;2023-08-06T00:52:51;2.15;;;1.10;;
47896;SDS011;39629;51.400;5.494;2023-08-06T00:57:53;5.07;;;1.10;;
47896;SDS011;39629;51.400;5.494;2023-08-06T01:02:57;2.33;;;1.07;;
47896;SDS011;39629;51.400;5.494;2023-08-06T01:08:08;3.55;;;1.00;;
47896;SDS011;39629;51.400;5.494;2023-08-06T01:13:23;2.60;;;0.90;;
47896;SDS011;39629;51.400;5.494;2023-08-06T01:18:29;1.67;;;0.90;;
47896;SDS011;39629;51.400;5.494;2023-08-06T01:23:32;2.30;;;0.80;;
47896;SDS011;39629;51.400;5.494;2023-08-06T01:28:37;2.23;;;0.90;;
47896;SDS011;39629;51.400;5.494;2023-08-06T01:33:45;2.55;;;0.90;;
47896;SDS011;39629;51.400;5.494;2023-08-06T01:38:51;3.55;;;1.00;;
47896;SDS011;39629;51.400;5.494;2023-08-06T01:43:53;2.22;;;1.00;;
47896;SDS011;39629;51.400;5.494;2023-08-06T01:48:55;1.52;;;0.80;;
47896;SDS011;39629;51.400;5.494;2023-08-06T01:53:58;2.00;;;0.93;;
47896;SDS011;39629;51.400;5.494;2023-08-06T01:58:59;3.10;;;1.00;;
47896;SDS011;39629;51.400;5.494;2023-08-06T02:04:01;2.17;;;0.82;;
47896;SDS011;39629;51.400;5.494;2023-08-06T02:09:04;5.50;;;1.30;;
47896;SDS011;39629;51.400;5.494;2023-08-06T02:14:06;1.85;;;0.82;;
47896;SDS011;39629;51.400;5.494;2023-08-06T02:19:07;4.75;;;0.80;;
47896;SDS011;39629;51.400;5.494;2023-08-06T02:24:11;1.35;;;0.70;;
47896;SDS011;39629;51.400;5.494;2023-08-06T02:29:12;3.65;;;1.00;;
47896;SDS011;39629;51.400;5.494;2023-08-06T02:34:16;3.33;;;1.00;;
47896;SDS011;39629;51.400;5.494;2023-08-06T02:39:20;1.40;;;0.82;;
47896;SDS011;39629;51.400;5.494;2023-08-06T02:44:22;2.97;;;0.98;;
47896;SDS011;39629;51.400;5.494;2023-08-06T02:49:23;2.47;;;0.98;;
47896;SDS011;39629;51.400;5.494;2023-08-06T02:54:26;2.58;;;0.82;;
47896;SDS011;39629;51.400;5.494;2023-08-06T02:59:29;2.13;;;1.10;;
47896;SDS011;39629;51.400;5.494;2023-08-06T03:04:38;3.70;;;1.73;;
47896;SDS011;39629;51.400;5.494;2023-08-06T03:09:43;1.98;;;1.05;;
47896;SDS011;39629;51.400;5.494;2023-08-06T03:14:45;3.90;;;1.20;;
47896;SDS011;39629;51.400;5.494;2023-08-06T03:19:46;3.97;;;1.30;;
47896;SDS011;39629;51.400;5.494;2023-08-06T03:24:51;2.17;;;1.38;;
47896;SDS011;39629;51.400;5.494;2023-08-06T03:29:55;2.90;;;1.30;;
47896;SDS011;39629;51.400;5.494;2023-08-06T03:35:00;3.40;;;1.63;;
47896;SDS011;39629;51.400;5.494;2023-08-06T03:40:06;3.63;;;1.73;;
47896;SDS011;39629;51.400;5.494;2023-08-06T03:45:09;2.78;;;1.63;;
47896;SDS011;39629;51.400;5.494;2023-08-06T03:50:13;4.70;;;1.65;;
47896;SDS011;39629;51.400;5.494;2023-08-06T03:55:16;4.97;;;1.80;;
47896;SDS011;39629;51.400;5.494;2023-08-06T04:00:18;3.85;;;1.63;;
47896;SDS011;39629;51.400;5.494;2023-08-06T04:05:26;4.22;;;1.60;;
47896;SDS011;39629;51.400;5.494;2023-08-06T04:10:29;4.47;;;1.70;;
47896;SDS011;39629;51.400;5.494;2023-08-06T04:15:30;2.20;;;1.50;;
47896;SDS011;39629;51.400;5.494;2023-08-06T04:20:34;3.40;;;1.63;;
47896;SDS011;39629;51.400;5.494;2023-08-06T04:25:37;3.95;;;1.50;;
47896;SDS011;39629;51.400;5.494;2023-08-06T04:30:39;5.37;;;1.70;;
47896;SDS011;39629;51.400;5.494;2023-08-06T04:35:42;1.88;;;1.10;;
47896;SDS011;39629;51.400;5.494;2023-08-06T04:40:45;3.83;;;1.73;;
47896;SDS011;39629;51.400;5.494;2023-08-06T04:45:47;4.57;;;1.90;;
47896;SDS011;39629;51.400;5.494;2023-08-06T04:50:49;2.92;;;1.55;;
47896;SDS011;39629;51.400;5.494;2023-08-06T04:55:53;5.13;;;1.80;;
47896;SDS011;39629;51.400;5.494;2023-08-06T05:00:54;2.58;;;1.88;;
47896;SDS011;39629;51.400;5.494;2023-08-06T05:05:56;2.60;;;1.50;;
47896;SDS011;39629;51.400;5.494;2023-08-06T05:10:59;5.50;;;1.80;;
47896;SDS011;39629;51.400;5.494;2023-08-06T05:16:00;3.40;;;1.88;;
47896;SDS011;39629;51.400;5.494;2023-08-06T05:21:02;3.60;;;1.90;;
47896;SDS011;39629;51.400;5.494;2023-08-06T05:26:05;4.45;;;2.30;;
47896;SDS011;39629;51.400;5.494;2023-08-06T05:31:06;3.95;;;2.30;;
47896;SDS011;39629;51.400;5.494;2023-08-06T05:36:08;4.95;;;2.20;;
47896;SDS011;39629;51.400;5.494;2023-08-06T05:41:11;7.45;;;2.33;;
47896;SDS011;39629;51.400;5.494;2023-08-06T05:46:12;3.72;;;2.20;;
47896;SDS011;39629;51.400;5.494;2023-08-06T05:51:14;4.60;;;2.15;;
47896;SDS011;39629;51.400;5.494;2023-08-06T05:56:18;5.82;;;2.50;;
47896;SDS011;39629;51.400;5.494;2023-08-06T06:01:19;5.72;;;2.17;;
47896;SDS011;39629;51.400;5.494;2023-08-06T06:06:21;3.97;;;2.20;;
47896;SDS011;39629;51.400;5.494;2023-08-06T06:11:24;3.65;;;2.20;;
47896;SDS011;39629;51.400;5.494;2023-08-06T06:16:25;3.65;;;2.38;;
47896;SDS011;39629;51.400;5.494;2023-08-06T06:21:27;4.00;;;2.40;;
47896;SDS011;39629;51.400;5.494;2023-08-06T06:26:30;5.90;;;2.55;;
47896;SDS011;39629;51.400;5.494;2023-08-06T06:31:32;7.35;;;2.42;;
47896;SDS011;39629;51.400;5.494;2023-08-06T06:36:33;4.93;;;2.50;;
47896;SDS011;39629;51.400;5.494;2023-08-06T06:41:36;4.72;;;2.50;;
47896;SDS011;39629;51.400;5.494;2023-08-06T06:46:45;3.47;;;2.50;;
47896;SDS011;39629;51.400;5.494;2023-08-06T06:51:47;4.57;;;2.00;;
47896;SDS011;39629;51.400;5.494;2023-08-06T06:56:50;3.85;;;2.20;;
47896;SDS011;39629;51.400;5.494;2023-08-06T07:01:51;2.28;;;1.00;;
47896;SDS011;39629;51.400;5.494;2023-08-06T07:06:53;1.50;;;0.60;;
47896;SDS011;39629;51.400;5.494;2023-08-06T07:11:56;2.10;;;0.80;;
47896;SDS011;39629;51.400;5.494;2023-08-06T07:16:57;1.70;;;0.93;;
47896;SDS011;39629;51.400;5.494;2023-08-06T07:21:59;1.95;;;1.00;;
47896;SDS011;39629;51.400;5.494;2023-08-06T07:27:02;2.00;;;0.80;;
47896;SDS011;39629;51.400;5.494;2023-08-06T07:32:05;1.70;;;0.90;;
47896;SDS011;39629;51.400;5.494;2023-08-06T07:37:08;2.20;;;0.80;;
47896;SDS011;39629;51.400;5.494;2023-08-06T07:42:11;1.58;;;0.90;;
47896;SDS011;39629;51.400;5.494;2023-08-06T07:47:13;1.47;;;0.90;;
47896;SDS011;39629;51.400;5.494;2023-08-06T07:52:14;1.88;;;1.13;;
47896;SDS011;39629;51.400;5.494;2023-08-06T07:57:17;2.80;;;1.40;;
47896;SDS011;39629;51.400;5.494;2023-08-06T08:02:19;1.75;;;1.15;;
47896;SDS011;39629;51.400;5.494;2023-08-06T08:07:20;3.08;;;1.30;;
47896;SDS011;39629;51.400;5.494;2023-08-06T08:12:23;2.47;;;1.40;;
47896;SDS011;39629;51.400;5.494;2023-08-06T08:17:25;1.90;;;1.27;;
47896;SDS011;39629;51.400;5.494;2023-08-06T08:22:26;2.50;;;1.20;;
47896;SDS011;39629;51.400;5.494;2023-08-06T08:27:29;1.65;;;1.02;;
47896;SDS011;39629;51.400;5.494;2023-08-06T08:32:31;2.08;;;1.00;;
47896;SDS011;39629;51.400;5.494;2023-08-06T08:37:32;3.70;;;1.10;;
47896;SDS011;39629;51.400;5.494;2023-08-06T08:42:35;4.85;;;1.27;;
47896;SDS011;39629;51.400;5.494;2023-08-06T08:47:37;4.43;;;1.20;;
47896;SDS011;39629;51.400;5.494;2023-08-06T08:52:40;3.35;;;1.10;;
47896;SDS011;39629;51.400;5.494;2023-08-06T08:57:43;3.47;;;1.20;;
47896;SDS011;39629;51.400;5.494;2023-08-06T09:02:44;4.30;;;1.00;;
47896;SDS011;39629;51.400;5.494;2023-08-06T09:07:48;2.90;;;1.20;;
47896;SDS011;39629;51.400;5.494;2023-08-06T09:12:51;4.50;;;1.30;;
47896;SDS011;39629;51.400;5.494;2023-08-06T09:17:54;7.63;;;1.23;;
47896;SDS011;39629;51.400;5.494;2023-08-06T09:22:56;5.30;;;1.38;;
47896;SDS011;39629;51.400;5.494;2023-08-06T09:27:59;5.00;;;1.13;;
47896;SDS011;39629;51.400;5.494;2023-08-06T09:33:01;3.28;;;1.10;;
47896;SDS011;39629;51.400;5.494;2023-08-06T09:38:06;4.20;;;0.90;;
47896;SDS011;39629;51.400;5.494;2023-08-06T09:43:10;3.00;;;0.90;;
47896;SDS011;39629;51.400;5.494;2023-08-06T09:48:12;5.10;;;1.00;;
47896;SDS011;39629;51.400;5.494;2023-08-06T09:53:14;3.75;;;1.20;;
47896;SDS011;39629;51.400;5.494;2023-08-06T09:58:17;5.03;;;1.13;;
47896;SDS011;39629;51.400;5.494;2023-08-06T10:03:19;2.88;;;1.08;;
47896;SDS011;39629;51.400;5.494;2023-08-06T10:08:22;5.95;;;1.20;;
47896;SDS011;39629;51.400;5.494;2023-08-06T10:13:25;5.63;;;1.30;;
47896;SDS011;39629;51.400;5.494;2023-08-06T10:18:27;3.90;;;1.13;;
47896;SDS011;39629;51.400;5.494;2023-08-06T10:23:33;5.25;;;1.27;;
47896;SDS011;39629;51.400;5.494;2023-08-06T10:28:39;3.58;;;1.00;;
47896;SDS011;39629;51.400;5.494;2023-08-06T10:33:41;5.53;;;1.42;;
47896;SDS011;39629;51.400;5.494;2023-08-06T10:38:45;3.07;;;0.97;;
47896;SDS011;39629;51.400;5.494;2023-08-06T10:43:49;4.07;;;1.07;;
47896;SDS011;39629;51.400;5.494;2023-08-06T10:48:51;3.13;;;1.05;;
47896;SDS011;39629;51.400;5.494;2023-08-06T10:53:53;1.80;;;0.75;;
47896;SDS011;39629;51.400;5.494;2023-08-06T10:58:57;5.75;;;1.10;;
47896;SDS011;39629;51.400;5.494;2023-08-06T11:04:00;3.92;;;1.00;;
47896;SDS011;39629;51.400;5.494;2023-08-06T11:09:05;3.25;;;1.15;;
47896;SDS011;39629;51.400;5.494;2023-08-06T11:14:14;2.60;;;1.05;;
47896;SDS011;39629;51.400;5.494;2023-08-06T11:19:16;3.83;;;1.20;;
47896;SDS011;39629;51.400;5.494;2023-08-06T11:24:18;4.03;;;1.15;;
47896;SDS011;39629;51.400;5.494;2023-08-06T11:29:21;5.50;;;1.23;;
47896;SDS011;39629;51.400;5.494;2023-08-06T11:34:23;6.13;;;1.07;;
47896;SDS011;39629;51.400;5.494;2023-08-06T11:39:24;3.28;;;0.90;;
47896;SDS011;39629;51.400;5.494;2023-08-06T11:44:29;3.40;;;0.98;;
47896;SDS011;39629;51.400;5.494;2023-08-06T11:49:37;4.65;;;1.00;;
47896;SDS011;39629;51.400;5.494;2023-08-06T11:54:40;3.80;;;1.20;;
47896;SDS011;39629;51.400;5.494;2023-08-06T11:59:43;3.58;;;0.90;;
47896;SDS011;39629;51.400;5.494;2023-08-06T12:04:58;3.42;;;0.85;;
47896;SDS011;39629;51.400;5.494;2023-08-06T12:10:04;2.78;;;0.88;;
47896;SDS011;39629;51.400;5.494;2023-08-06T12:15:09;3.58;;;0.98;;
47896;SDS011;39629;51.400;5.494;2023-08-06T12:20:11;4.15;;;1.00;;
47896;SDS011;39629;51.400;5.494;2023-08-06T12:25:13;4.38;;;0.88;;
47896;SDS011;39629;51.400;5.494;2023-08-06T12:30:16;2.42;;;0.90;;
47896;SDS011;39629;51.400;5.494;2023-08-06T12:35:17;2.72;;;0.80;;
47896;SDS011;39629;51.400;5.494;2023-08-06T12:40:20;2.25;;;0.70;;
47896;SDS011;39629;51.400;5.494;2023-08-06T12:45:23;1.23;;;0.47;;
47896;SDS011;39629;51.400;5.494;2023-08-06T12:50:24;3.03;;;0.50;;
47896;SDS011;39629;51.400;5.494;2023-08-06T12:55:26;1.95;;;0.60;;
47896;SDS011;39629;51.400;5.494;2023-08-06T13:00:29;3.20;;;0.50;;
47896;SDS011;39629;51.400;5.494;2023-08-06T13:05:31;3.72;;;0.57;;
47896;SDS011;39629;51.400;5.494;2023-08-06T13:10:32;2.28;;;0.50;;
47896;SDS011;39629;51.400;5.494;2023-08-06T13:15:35;3.83;;;0.52;;
47896;SDS011;39629;51.400;5.494;2023-08-06T13:20:38;3.08;;;0.40;;
47896;SDS011;39629;51.400;5.494;2023-08-06T13:25:40;2.83;;;0.50;;
47896;SDS011;39629;51.400;5.494;2023-08-06T13:30:42;4.00;;;0.60;;
47896;SDS011;39629;51.400;5.494;2023-08-06T13:35:44;2.40;;;0.40;;
47896;SDS011;39629;51.400;5.494;2023-08-06T13:40:46;2.75;;;0.55;;
47896;SDS011;39629;51.400;5.494;2023-08-06T13:45:48;2.08;;;0.50;;
47896;SDS011;39629;51.400;5.494;2023-08-06T13:50:50;1.67;;;0.45;;
47896;SDS011;39629;51.400;5.494;2023-08-06T13:55:52;4.05;;;0.57;;
47896;SDS011;39629;51.400;5.494;2023-08-06T14:00:55;2.30;;;0.60;;
47896;SDS011;39629;51.400;5.494;2023-08-06T14:05:57;2.53;;;0.52;;
47896;SDS011;39629;51.400;5.494;2023-08-06T14:10:59;2.45;;;0.50;;
47896;SDS011;39629;51.400;5.494;2023-08-06T14:16:02;4.50;;;0.77;;
47896;SDS011;39629;51.400;5.494;2023-08-06T14:21:04;3.90;;;0.70;;
47896;SDS011;39629;51.400;5.494;2023-08-06T14:26:05;4.15;;;0.93;;
47896;SDS011;39629;51.400;5.494;2023-08-06T14:31:08;3.70;;;1.00;;
47896;SDS011;39629;51.400;5.494;2023-08-06T14:36:10;2.58;;;0.70;;
47896;SDS011;39629;51.400;5.494;2023-08-06T14:41:11;2.78;;;0.57;;
47896;SDS011;39629;51.400;5.494;2023-08-06T14:46:14;1.63;;;0.63;;
47896;SDS011;39629;51.400;5.494;2023-08-06T14:51:16;4.03;;;0.70;;
47896;SDS011;39629;51.400;5.494;2023-08-06T14:56:19;2.83;;;0.67;;
47896;SDS011;39629;51.400;5.494;2023-08-06T15:01:22;3.28;;;0.60;;
47896;SDS011;39629;51.400;5.494;2023-08-06T15:06:24;2.30;;;0.75;;
47896;SDS011;39629;51.400;5.494;2023-08-06T15:11:25;4.03;;;0.80;;
47896;SDS011;39629;51.400;5.494;2023-08-06T15:16:28;4.15;;;0.90;;
47896;SDS011;39629;51.400;5.494;2023-08-06T15:21:30;5.90;;;1.23;;
47896;SDS011;39629;51.400;5.494;2023-08-06T15:26:31;2.00;;;0.40;;
47896;SDS011;39629;51.400;5.494;2023-08-06T15:31:36;1.17;;;0.32;;
47896;SDS011;39629;51.400;5.494;2023-08-06T15:36:39;1.45;;;0.40;;
47896;SDS011;39629;51.400;5.494;2023-08-06T15:41:41;1.77;;;0.40;;
47896;SDS011;39629;51.400;5.494;2023-08-06T15:46:44;1.75;;;0.52;;
47896;SDS011;39629;51.400;5.494;2023-08-06T15:51:45;1.08;;;0.30;;
47896;SDS011;39629;51.400;5.494;2023-08-06T15:56:47;2.20;;;0.30;;
47896;SDS011;39629;51.400;5.494;2023-08-06T16:01:50;1.95;;;0.30;;
47896;SDS011;39629;51.400;5.494;2023-08-06T16:06:52;2.57;;;0.50;;
47896;SDS011;39629;51.400;5.494;2023-08-06T16:11:53;1.33;;;0.38;;
47896;SDS011;39629;51.400;5.494;2023-08-06T16:16:56;1.30;;;0.30;;
47896;SDS011;39629;51.400;5.494;2023-08-06T16:21:58;1.02;;;0.13;;
47896;SDS011;39629;51.400;5.494;2023-08-06T16:26:59;2.65;;;0.30;;
47896;SDS011;39629;51.400;5.494;2023-08-06T16:32:02;1.13;;;0.20;;
47896;SDS011;39629;51.400;5.494;2023-08-06T16:37:05;0.68;;;0.25;;
47896;SDS011;39629;51.400;5.494;2023-08-06T16:42:06;1.45;;;0.35;;
47896;SDS011;39629;51.400;5.494;2023-08-06T16:47:09;2.85;;;0.80;;
47896;SDS011;39629;51.400;5.494;2023-08-06T16:52:11;1.60;;;0.45;;
47896;SDS011;39629;51.400;5.494;2023-08-06T16:57:13;2.97;;;0.55;;
47896;SDS011;39629;51.400;5.494;2023-08-06T17:02:15;2.08;;;0.35;;
47896;SDS011;39629;51.400;5.494;2023-08-06T17:07:17;3.15;;;0.50;;
47896;SDS011;39629;51.400;5.494;2023-08-06T17:12:19;3.60;;;0.57;;
47896;SDS011;39629;51.400;5.494;2023-08-06T17:17:22;3.92;;;0.50;;
47896;SDS011;39629;51.400;5.494;2023-08-06T17:22:24;1.60;;;0.47;;
47896;SDS011;39629;51.400;5.494;2023-08-06T17:27:25;3.90;;;0.52;;
47896;SDS011;39629;51.400;5.494;2023-08-06T17:32:28;3.88;;;0.50;;
47896;SDS011;39629;51.400;5.494;2023-08-06T17:37:30;4.30;;;0.70;;
47896;SDS011;39629;51.400;5.494;2023-08-06T17:42:31;5.65;;;0.68;;
47896;SDS011;39629;51.400;5.494;2023-08-06T17:47:34;2.88;;;0.60;;
47896;SDS011;39629;51.400;5.494;2023-08-06T17:52:36;2.95;;;0.50;;
47896;SDS011;39629;51.400;5.494;2023-08-06T17:57:37;6.85;;;0.80;;
47896;SDS011;39629;51.400;5.494;2023-08-06T18:02:40;4.20;;;0.70;;
47896;SDS011;39629;51.400;5.494;2023-08-06T18:07:42;3.15;;;0.60;;
47896;SDS011;39629;51.400;5.494;2023-08-06T18:12:45;3.38;;;0.70;;
47896;SDS011;39629;51.400;5.494;2023-08-06T18:17:48;4.63;;;0.70;;
47896;SDS011;39629;51.400;5.494;2023-08-06T18:22:49;4.00;;;0.77;;
47896;SDS011;39629;51.400;5.494;2023-08-06T18:27:51;3.67;;;0.68;;
47896;SDS011;39629;51.400;5.494;2023-08-06T18:32:54;1.88;;;0.50;;
47896;SDS011;39629;51.400;5.494;2023-08-06T18:37:56;3.10;;;0.50;;
47896;SDS011;39629;51.400;5.494;2023-08-06T18:42:58;2.83;;;0.60;;
47896;SDS011;39629;51.400;5.494;2023-08-06T18:48:01;4.30;;;0.60;;
47896;SDS011;39629;51.400;5.494;2023-08-06T18:53:03;2.25;;;0.50;;
47896;SDS011;39629;51.400;5.494;2023-08-06T18:58:05;4.40;;;1.15;;
47896;SDS011;39629;51.400;5.494;2023-08-06T19:03:10;3.90;;;0.70;;
47896;SDS011;39629;51.400;5.494;2023-08-06T19:08:12;5.13;;;0.60;;
47896;SDS011;39629;51.400;5.494;2023-08-06T19:13:13;4.97;;;1.17;;
47896;SDS011;39629;51.400;5.494;2023-08-06T19:18:16;4.03;;;0.90;;
47896;SDS011;39629;51.400;5.494;2023-08-06T19:23:18;4.25;;;0.90;;
47896;SDS011;39629;51.400;5.494;2023-08-06T19:28:20;5.90;;;1.25;;
47896;SDS011;39629;51.400;5.494;2023-08-06T19:38:27;3.38;;;0.90;;
47896;SDS011;39629;51.400;5.494;2023-08-06T19:43:29;4.22;;;0.98;;
47896;SDS011;39629;51.400;5.494;2023-08-06T19:48:32;3.20;;;0.80;;
47896;SDS011;39629;51.400;5.494;2023-08-06T19:53:34;6.13;;;0.68;;
47896;SDS011;39629;51.400;5.494;2023-08-06T19:58:36;2.28;;;0.65;;
47896;SDS011;39629;51.400;5.494;2023-08-06T20:03:39;4.15;;;0.68;;
47896;SDS011;39629;51.400;5.494;2023-08-06T20:08:43;3.55;;;0.60;;
47896;SDS011;39629;51.400;5.494;2023-08-06T20:13:45;5.78;;;0.98;;
47896;SDS011;39629;51.400;5.494;2023-08-06T20:18:47;4.13;;;0.82;;
47896;SDS011;39629;51.400;5.494;2023-08-06T20:23:49;4.95;;;0.60;;
47896;SDS011;39629;51.400;5.494;2023-08-06T20:28:51;4.85;;;0.75;;
47896;SDS011;39629;51.400;5.494;2023-08-06T20:33:54;2.53;;;0.60;;
47896;SDS011;39629;51.400;5.494;2023-08-06T20:38:55;2.53;;;0.52;;
47896;SDS011;39629;51.400;5.494;2023-08-06T20:43:57;4.38;;;0.70;;
47896;SDS011;39629;51.400;5.494;2023-08-06T20:49:00;3.63;;;0.77;;
47896;SDS011;39629;51.400;5.494;2023-08-06T20:54:02;4.97;;;0.80;;
47896;SDS011;39629;51.400;5.494;2023-08-06T20:59:03;4.00;;;1.05;;
47896;SDS011;39629;51.400;5.494;2023-08-06T21:04:06;4.60;;;0.60;;
47896;SDS011;39629;51.400;5.494;2023-08-06T21:09:10;4.25;;;0.80;;
47896;SDS011;39629;51.400;5.494;2023-08-06T21:14:12;5.70;;;1.00;;
47896;SDS011;39629;51.400;5.494;2023-08-06T21:19:15;4.43;;;0.90;;
47896;SDS011;39629;51.400;5.494;2023-08-06T21:24:17;7.25;;;1.50;;
47896;SDS011;39629;51.400;5.494;2023-08-06T21:29:19;6.88;;;1.85;;
47896;SDS011;39629;51.400;5.494;2023-08-06T21:34:22;5.18;;;1.27;;
47896;SDS011;39629;51.400;5.494;2023-08-06T21:39:24;8.90;;;1.42;;
47896;SDS011;39629;51.400;5.494;2023-08-06T21:44:26;8.05;;;1.35;;
47896;SDS011;39629;51.400;5.494;2023-08-06T21:49:28;4.75;;;1.08;;
47896;SDS011;39629;51.400;5.494;2023-08-06T21:54:30;3.42;;;1.00;;
47896;SDS011;39629;51.400;5.494;2023-08-06T21:59:32;5.95;;;1.10;;
47896;SDS011;39629;51.400;5.494;2023-08-06T22:04:35;7.00;;;1.38;;
47896;SDS011;39629;51.400;5.494;2023-08-06T22:09:36;4.95;;;1.30;;
47896;SDS011;39629;51.400;5.494;2023-08-06T22:14:38;5.78;;;1.83;;
47896;SDS011;39629;51.400;5.494;2023-08-06T22:19:41;5.30;;;1.52;;
47896;SDS011;39629;51.400;5.494;2023-08-06T22:24:42;9.02;;;1.70;;
47896;SDS011;39629;51.400;5.494;2023-08-06T22:29:44;7.22;;;1.40;;
47896;SDS011;39629;51.400;5.494;2023-08-06T22:34:47;3.42;;;1.20;;
47896;SDS011;39629;51.400;5.494;2023-08-06T22:39:48;5.40;;;1.10;;
47896;SDS011;39629;51.400;5.494;2023-08-06T22:44:50;4.20;;;1.00;;
47896;SDS011;39629;51.400;5.494;2023-08-06T22:49:53;4.03;;;1.55;;
47896;SDS011;39629;51.400;5.494;2023-08-06T22:54:55;7.25;;;1.35;;
47896;SDS011;39629;51.400;5.494;2023-08-06T22:59:57;4.00;;;1.38;;
47896;SDS011;39629;51.400;5.494;2023-08-06T23:05:00;4.05;;;1.42;;
47896;SDS011;39629;51.400;5.494;2023-08-06T23:10:01;4.95;;;1.20;;
47896;SDS011;39629;51.400;5.494;2023-08-06T23:15:05;6.82;;;1.25;;
47896;SDS011;39629;51.400;5.494;2023-08-06T23:20:09;5.93;;;1.20;;
47896;SDS011;39629;51.400;5.494;2023-08-06T23:25:11;5.13;;;1.38;;
47896;SDS011;39629;51.400;5.494;2023-08-06T23:30:12;4.50;;;1.30;;
47896;SDS011;39629;51.400;5.494;2023-08-06T23:35:15;7.10;;;1.25;;
47896;SDS011;39629;51.400;5.494;2023-08-06T23:40:18;5.97;;;1.15;;
47896;SDS011;39629;51.400;5.494;2023-08-06T23:45:21;3.97;;;1.00;;
47896;SDS011;39629;51.400;5.494;2023-08-06T23:50:24;5.85;;;1.02;;
47896;SDS011;39629;51.400;5.494;2023-08-06T23:55:26;4.90;;;1.05;;
